Catarman, Philippines
Current Conditions -  °F | °C
As of 7:00 AM on Friday 19 Dec 2014 (Local Time) from RPVM Reporting Station
Light Rain Light Rain  
Wind Chill: 77°   Ceiling: 8000
Heat Index: 78°   Visibility: 4mi
Dew Point: 75°   Wind: 8mph
Humidity: 94%   Direction: 50°NE
Pressure: 29.94"   Gusts: NA
Location:  12.5°N, 124.64°E
Report Text: RPVM 182300Z 05007KT 7000 -RA SCT020 OVC080 25/24 Q1014 RMK A2994
Loading
Personal Weather Stations






























Interactive Weather Map New forecast layout! Learn more

10-Day Weather Forecast

Advertisements
Track Severe Weather on mobile